Time;durP1;ratioP1;P1;durP2;ratioP2;P2;SDS_P1;SDS_P2;PMS_P1;PMS_P2;Temp;Humidity;BMP_temperature;BMP_pressure;BME280_temperature;BME280_humidity;BME280_pressure;Samples;Min_cycle;Max_cycle;Signal;HPM_P1;HPM_P2
2022/02/27 00:02:19;;;;;;;19.70;7.35;;;;;;;1.70;51.96;101910.27;122672;1105;104427;-79
2022/02/27 00:04:50;;;;;;;21.40;7.97;;;;;;;1.67;51.97;101915.16;122926;1106;104366;-79
2022/02/27 00:07:22;;;;;;;18.77;7.73;;;;;;;1.64;51.72;101914.87;123013;1105;104759;-78
2022/02/27 00:09:53;;;;;;;20.20;7.65;;;;;;;1.63;52.02;101919.14;122719;1105;104361;-79
2022/02/27 00:12:24;;;;;;;22.23;7.40;;;;;;;1.61;51.77;101924.17;122549;1104;104361;-78
2022/02/27 00:14:56;;;;;;;20.10;7.60;;;;;;;1.60;52.52;101913.69;122555;1105;104287;-78
2022/02/27 00:17:27;;;;;;;19.10;7.00;;;;;;;1.57;52.35;101921.16;123001;1105;104271;-78
2022/02/27 00:19:58;;;;;;;18.80;7.20;;;;;;;1.57;52.02;101915.98;122835;1105;104401;-79
2022/02/27 00:22:30;;;;;;;20.47;7.53;;;;;;;1.55;52.38;101915.84;122602;1105;104271;-78
2022/02/27 00:25:01;;;;;;;21.63;7.97;;;;;;;1.53;52.52;101919.97;122889;1105;104374;-79
2022/02/27 00:27:35;;;;;;;19.47;7.57;;;;;;;1.51;52.04;101921.51;122943;1105;104363;-78
2022/02/27 00:30:09;;;;;;;20.80;7.40;;;;;;;1.49;52.35;101914.36;122901;1105;104267;-79
2022/02/27 00:32:40;;;;;;;23.17;8.23;;;;;;;1.48;52.44;101921.22;122724;1105;104264;-79
2022/02/27 00:35:14;;;;;;;20.03;7.60;;;;;;;1.48;52.32;101922.88;122948;1105;104456;-79
2022/02/27 00:37:45;;;;;;;17.50;6.70;;;;;;;1.44;52.68;101927.75;122900;1105;104382;-79
2022/02/27 00:40:17;;;;;;;20.03;7.13;;;;;;;1.44;53.01;101930.34;122881;1105;104367;-78
2022/02/27 00:42:48;;;;;;;19.57;7.13;;;;;;;1.44;52.45;101929.44;122892;1105;104224;-78
2022/02/27 00:45:19;;;;;;;19.90;7.13;;;;;;;1.44;52.85;101930.34;123027;1105;104485;-79
2022/02/27 00:47:51;;;;;;;21.37;7.00;;;;;;;1.44;52.86;101935.52;122885;1105;104323;-79
2022/02/27 00:50:23;;;;;;;19.90;7.13;;;;;;;1.41;52.54;101929.15;123004;1103;104310;-79
2022/02/27 00:52:54;;;;;;;21.43;7.47;;;;;;;1.39;52.63;101929.00;123046;1105;104270;-79
2022/02/27 00:55:26;;;;;;;17.87;6.77;;;;;;;1.36;53.33;101930.39;122850;1105;104735;-79
2022/02/27 00:57:57;;;;;;;20.50;7.60;;;;;;;1.33;53.00;101932.69;122839;1105;104370;-79
2022/02/27 01:00:29;;;;;;;22.77;7.63;;;;;;;1.30;52.95;101927.22;123057;1105;104258;-78
2022/02/27 01:03:00;;;;;;;23.30;7.97;;;;;;;1.23;52.97;101930.87;122737;1105;104373;-78
2022/02/27 01:05:33;;;;;;;20.70;8.13;;;;;;;1.18;52.97;101930.42;123033;1103;104248;-79
2022/02/27 01:08:05;;;;;;;20.20;8.17;;;;;;;1.13;53.46;101930.77;123001;1105;104248;-78
2022/02/27 01:10:37;;;;;;;22.67;7.67;;;;;;;1.10;53.12;101938.23;122863;1105;104380;-79
2022/02/27 01:13:08;;;;;;;21.10;7.10;;;;;;;1.10;53.12;101940.81;122734;1103;104271;-79
2022/02/27 01:15:40;;;;;;;21.10;8.50;;;;;;;1.08;53.85;101941.56;122645;1105;104312;-79
2022/02/27 01:18:11;;;;;;;22.83;7.23;;;;;;;1.08;53.67;101940.66;122656;1105;104345;-79
2022/02/27 01:20:42;;;;;;;17.57;6.70;;;;;;;1.06;54.13;101940.52;122931;1105;104395;-79
2022/02/27 01:23:15;;;;;;;19.80;6.50;;;;;;;1.05;53.75;101941.27;122672;1105;104296;-78
2022/02/27 01:25:47;;;;;;;20.80;7.17;;;;;;;1.02;53.79;101940.97;122928;1103;104479;-79
2022/02/27 01:28:20;;;;;;;22.70;7.20;;;;;;;1.00;53.93;101937.34;122810;1105;104523;-79
2022/02/27 01:30:51;;;;;;;18.80;6.83;;;;;;;0.99;53.50;101944.94;122739;1105;104268;-79
2022/02/27 01:33:22;;;;;;;19.50;7.73;;;;;;;0.97;54.02;101938.73;123135;1105;104312;-79
2022/02/27 01:35:55;;;;;;;;;;;;;;;0.98;53.84;101940.52;122838;1105;104283;-78
2022/02/27 01:38:27;;;;;;;20.70;7.37;;;;;;;0.95;53.52;101940.23;122792;1103;104368;-79
2022/02/27 01:40:58;;;;;;;18.83;7.17;;;;;;;0.93;53.80;101940.08;122928;1104;104265;-79
2022/02/27 01:43:29;;;;;;;19.00;7.40;;;;;;;0.90;53.72;101944.95;122798;1105;104310;-79
2022/02/27 01:46:01;;;;;;;16.33;6.80;;;;;;;0.87;53.53;101939.48;123057;1105;104320;-79
2022/02/27 01:48:33;;;;;;;19.27;6.90;;;;;;;0.85;53.80;101946.18;122880;1105;104421;-79
2022/02/27 01:51:04;;;;;;;20.13;7.67;;;;;;;0.85;53.88;101943.59;122814;1105;104338;-78
2022/02/27 01:53:36;;;;;;;20.03;7.23;;;;;;;0.81;53.83;101938.87;122734;1105;104398;-79
2022/02/27 01:56:08;;;;;;;17.80;6.73;;;;;;;0.80;54.41;101947.41;122633;1105;104380;-79
2022/02/27 01:58:39;;;;;;;18.77;6.90;;;;;;;0.76;53.65;101941.02;122837;1105;104725;-79
2022/02/27 02:01:11;;;;;;;17.73;6.93;;;;;;;0.75;53.87;101940.86;122829;1105;119331;-79
2022/02/27 02:03:43;;;;;;;19.80;7.50;;;;;;;0.75;53.79;101940.86;122721;1105;104364;-79
2022/02/27 02:06:15;;;;;;;20.50;7.70;;;;;;;0.77;53.48;101947.12;122820;1105;104472;-79
2022/02/27 02:08:48;;;;;;;18.75;7.30;;;;;;;0.80;53.78;101952.58;122967;1105;104277;-78
2022/02/27 02:11:20;;;;;;;23.15;7.60;;;;;;;0.81;53.86;101944.98;122970;1105;104472;-79
2022/02/27 02:13:52;;;;;;;20.27;8.40;;;;;;;0.81;54.20;101938.87;122782;1105;104499;-79
2022/02/27 02:16:23;;;;;;;23.85;7.95;;;;;;;0.78;54.33;101941.16;122967;1105;104395;-79
2022/02/27 02:18:54;;;;;;;20.60;7.40;;;;;;;0.71;53.91;101949.99;122955;1105;104339;-78
2022/02/27 02:21:26;;;;;;;17.20;6.80;;;;;;;0.65;54.03;101947.70;122813;1103;111675;-79
2022/02/27 02:23:58;;;;;;;20.07;7.77;;;;;;;0.62;54.14;101944.82;122858;1105;104378;-79
2022/02/27 02:26:29;;;;;;;21.47;7.87;;;;;;;0.60;54.13;101946.35;122823;1105;104411;-79
2022/02/27 02:29:00;;;;;;;20.97;8.40;;;;;;;0.54;54.46;101950.91;122629;1105;104823;-79
2022/02/27 02:31:33;;;;;;;21.77;8.60;;;;;;;0.49;53.99;101952.14;123070;1105;104312;-78
2022/02/27 02:34:07;;;;;;;20.67;8.17;;;;;;;0.42;54.30;101952.28;123037;1105;104739;-79
2022/02/27 02:36:39;;;;;;;24.10;7.97;;;;;;;0.34;54.68;101957.61;123139;1105;104264;-77
2022/02/27 02:39:13;;;;;;;20.13;8.00;;;;;;;0.27;54.97;101960.33;123006;1105;104377;-78
2022/02/27 02:41:45;;;;;;;20.67;8.13;;;;;;;0.22;55.05;101961.55;122750;1105;104390;-78
2022/02/27 02:44:21;;;;;;;21.60;8.60;;;;;;;0.17;54.71;101958.50;122806;1105;104390;-79
2022/02/27 02:46:53;;;;;;;21.45;7.80;;;;;;;0.12;55.02;101954.52;122950;1105;104399;-78
2022/02/27 02:49:24;;;;;;;22.15;7.60;;;;;;;0.09;54.59;101958.47;122934;1105;104556;-79
2022/02/27 02:51:58;;;;;;;20.60;7.70;;;;;;;0.07;54.81;101960.89;122943;1105;104331;-79
2022/02/27 02:54:29;;;;;;;18.40;7.10;;;;;;;0.07;54.96;101960.00;122826;1105;104419;-78
2022/02/27 02:57:00;;;;;;;22.20;8.43;;;;;;;0.07;55.38;101960.89;122836;1105;104740;-79
2022/02/27 02:59:32;;;;;;;17.73;6.73;;;;;;;0.07;55.82;101967.74;122735;1105;104776;-79
2022/02/27 03:02:03;;;;;;;19.27;7.27;;;;;;;0.06;55.27;101969.39;122811;1105;104325;-77
2022/02/27 03:04:35;;;;;;;20.57;7.43;;;;;;;0.04;55.53;101965.75;122916;1105;104213;-78
2022/02/27 03:07:07;;;;;;;20.93;7.27;;;;;;;0.03;55.18;101963.91;122939;1105;104278;-79
2022/02/27 03:09:38;;;;;;;22.07;7.30;;;;;;;0.03;55.69;101975.92;122970;1105;104479;-79
2022/02/27 03:12:11;;;;;;;20.63;7.57;;;;;;;0.02;56.32;101968.92;122865;1105;104476;-79
2022/02/27 03:14:42;;;;;;;21.57;7.10;;;;;;;-0.01;55.75;101973.02;122846;1105;104419;-78
2022/02/27 03:17:13;;;;;;;21.13;7.07;;;;;;;-0.02;56.20;101978.03;122847;1105;104527;-79
2022/02/27 03:19:45;;;;;;;18.70;7.17;;;;;;;-0.05;55.99;101981.23;122934;1105;104421;-79
2022/02/27 03:22:16;;;;;;;20.60;6.90;;;;;;;-0.08;56.08;101978.34;123065;1105;104293;-79
2022/02/27 03:24:48;;;;;;;23.33;7.87;;;;;;;-0.10;55.77;101972.09;122979;1103;104348;-77
2022/02/27 03:27:19;;;;;;;18.50;7.20;;;;;;;-0.10;56.06;101973.77;122976;1105;104288;-78
2022/02/27 03:29:50;;;;;;;17.33;6.80;;;;;;;-0.13;55.59;101971.77;122873;1105;104415;-79
2022/02/27 03:32:21;;;;;;;18.57;6.97;;;;;;;-0.15;55.87;101968.14;122831;1104;104316;-79
2022/02/27 03:34:53;;;;;;;19.40;7.20;;;;;;;-0.17;56.31;101967.08;123068;1105;104332;-79
2022/02/27 03:37:24;;;;;;;19.37;7.10;;;;;;;-0.16;56.42;101965.40;122966;1103;104345;-79
2022/02/27 03:39:55;;;;;;;21.57;7.00;;;;;;;-0.18;56.86;101965.24;123106;1105;104286;-79
2022/02/27 03:42:27;;;;;;;18.73;7.03;;;;;;;-0.22;56.41;101963.09;122756;1105;104262;-78
2022/02/27 03:44:58;;;;;;;18.50;6.63;;;;;;;-0.27;56.93;101969.46;122880;1103;104328;-79
2022/02/27 03:47:30;;;;;;;18.10;7.20;;;;;;;-0.31;57.05;101968.25;122956;1105;104405;-79
2022/02/27 03:50:01;;;;;;;18.97;7.37;;;;;;;-0.35;56.98;101967.77;123063;1105;104237;-79
2022/02/27 03:52:34;;;;;;;19.10;7.40;;;;;;;-0.40;57.31;101973.36;122893;1106;104673;-79
2022/02/27 03:55:09;;;;;;;17.97;6.57;;;;;;;-0.43;57.25;101969.56;123019;1105;104434;-78
2022/02/27 03:57:40;;;;;;;20.20;7.37;;;;;;;-0.46;57.71;101974.41;123033;1105;104258;-79
2022/02/27 04:00:15;;;;;;;21.07;7.30;;;;;;;-0.50;56.98;101977.41;123072;1105;104318;-79
2022/02/27 04:02:47;;;;;;;19.43;7.30;;;;;;;-0.53;57.68;101974.51;123086;1105;104309;-79
2022/02/27 04:05:20;;;;;;;19.23;7.90;;;;;;;-0.55;57.30;101969.19;123134;1105;104700;-79
2022/02/27 04:07:52;;;;;;;21.40;7.20;;;;;;;-0.56;57.42;101965.71;122976;1105;104306;-78
2022/02/27 04:10:23;;;;;;;19.47;7.33;;;;;;;-0.56;57.82;101964.81;123041;1103;104353;-78
2022/02/27 04:12:54;;;;;;;19.03;6.93;;;;;;;-0.57;58.33;101970.70;123093;1106;104370;-79
2022/02/27 04:15:26;;;;;;;19.57;6.97;;;;;;;-0.61;58.05;101968.55;122999;1105;104283;-78
2022/02/27 04:17:57;;;;;;;18.80;7.50;;;;;;;-0.63;58.20;101970.07;122983;1105;104249;-78
2022/02/27 04:20:29;;;;;;;20.60;7.07;;;;;;;-0.64;58.62;101973.39;122984;1105;104373;-79
2022/02/27 04:23:00;;;;;;;18.05;7.30;;;;;;;-0.67;57.69;101974.01;122983;1105;104341;-79
2022/02/27 04:25:31;;;;;;;25.03;7.60;;;;;;;-0.68;58.74;101969.59;122942;1103;104283;-78
2022/02/27 04:28:03;;;;;;;20.83;7.10;;;;;;;-0.70;59.62;101976.27;123057;1105;104718;-79
2022/02/27 04:30:35;;;;;;;21.03;6.87;;;;;;;-0.71;59.00;101974.43;122903;1105;104268;-79
2022/02/27 04:33:06;;;;;;;18.10;6.70;;;;;;;-0.73;58.75;101976.84;122632;1105;104322;-79
2022/02/27 04:35:40;;;;;;;19.57;7.40;;;;;;;-0.74;59.28;101975.01;122880;1104;104363;-79
2022/02/27 04:38:11;;;;;;;17.10;6.60;;;;;;;-0.77;58.11;101977.27;123066;1103;104267;-79
2022/02/27 04:40:42;;;;;;;19.07;6.43;;;;;;;-0.77;58.51;101976.36;123007;1105;104338;-79
2022/02/27 04:43:14;;;;;;;20.33;7.60;;;;;;;-0.79;59.21;101986.52;122863;1105;104291;-79
2022/02/27 04:45:46;;;;;;;19.83;6.73;;;;;;;-0.80;57.89;101983.78;122858;1105;104393;-79
2022/02/27 04:48:17;;;;;;;24.00;7.73;;;;;;;-0.80;59.11;101988.93;122874;1104;104347;-79
2022/02/27 04:50:48;;;;;;;22.17;7.30;;;;;;;-0.80;58.66;101992.41;122960;1105;104313;-79
2022/02/27 04:53:20;;;;;;;22.67;7.57;;;;;;;-0.79;59.07;101990.77;122947;1105;104328;-78
2022/02/27 04:55:51;;;;;;;19.00;6.97;;;;;;;-0.81;59.41;101989.67;123091;1105;104239;-79
2022/02/27 04:58:23;;;;;;;18.23;6.70;;;;;;;-0.80;59.09;101989.83;122980;1106;104320;-78
2022/02/27 05:00:54;;;;;;;18.37;7.20;;;;;;;-0.79;59.76;101993.34;123143;1105;104670;-79
2022/02/27 05:03:26;;;;;;;22.43;7.87;;;;;;;-0.81;59.00;101988.03;123097;1104;104261;-79
2022/02/27 05:05:58;;;;;;;21.75;7.50;;;;;;;-0.79;59.93;101980.46;123070;1106;104396;-79
2022/02/27 05:08:30;;;;;;;20.40;7.63;;;;;;;-0.76;59.93;101988.52;123041;1105;104306;-79
2022/02/27 05:11:03;;;;;;;18.50;7.35;;;;;;;-0.76;58.39;101984.26;122887;1105;104306;-78
2022/02/27 05:13:34;;;;;;;20.60;7.70;;;;;;;-0.74;59.32;101987.90;123050;1105;104261;-79
2022/02/27 05:16:06;;;;;;;19.63;7.30;;;;;;;-0.72;58.42;101990.64;123145;1105;104319;-79
2022/02/27 05:18:37;;;;;;;21.73;7.00;;;;;;;-0.71;59.06;101989.00;123099;1103;104338;-80
2022/02/27 05:21:09;;;;;;;17.70;7.00;;;;;;;-0.68;58.48;101991.89;123280;1104;104184;-79
2022/02/27 05:23:40;;;;;;;17.07;7.07;;;;;;;-0.64;59.77;101987.22;123236;1105;104395;-80
2022/02/27 05:26:11;;;;;;;18.05;6.70;;;;;;;-0.59;59.58;101983.44;122843;1105;104300;-78
2022/02/27 05:28:42;;;;;;;19.43;6.83;;;;;;;-0.53;59.05;101987.41;122879;1106;104373;-79
2022/02/27 05:31:14;;;;;;;20.03;6.90;;;;;;;-0.51;59.26;101989.40;123092;1106;104257;-79
2022/02/27 05:33:45;;;;;;;22.00;7.87;;;;;;;-0.45;59.09;101995.19;123121;1105;104338;-79
2022/02/27 05:36:17;;;;;;;19.10;7.85;;;;;;;-0.44;58.72;101989.26;122944;1105;104475;-78
2022/02/27 05:38:48;;;;;;;20.47;8.27;;;;;;;-0.43;59.82;101991.09;122817;1104;104293;-78
2022/02/27 05:41:20;;;;;;;19.10;7.00;;;;;;;-0.41;59.29;101984.41;123372;1105;104210;-80
2022/02/27 05:43:51;;;;;;;22.13;8.33;;;;;;;-0.35;58.92;101993.56;123057;1103;104316;-77
2022/02/27 05:46:22;;;;;;;21.33;7.80;;;;;;;-0.31;59.36;101993.10;123037;1103;104267;-77
2022/02/27 05:48:54;;;;;;;20.17;7.80;;;;;;;-0.27;59.44;101996.16;122961;1105;104381;-77
2022/02/27 05:51:25;;;;;;;19.70;8.20;;;;;;;-0.21;59.34;101989.05;123035;1104;104425;-78
2022/02/27 05:53:57;;;;;;;17.40;7.53;;;;;;;-0.13;59.78;102001.84;123095;1105;104332;-78
2022/02/27 05:56:28;;;;;;;21.55;7.95;;;;;;;-0.07;59.35;101998.20;122932;1105;104363;-80
2022/02/27 05:59:00;;;;;;;21.33;8.07;;;;;;;-0.01;59.05;102006.58;123264;1103;104626;-80
2022/02/27 06:01:31;;;;;;;19.67;7.93;;;;;;;0.07;58.89;102007.36;123437;1105;104466;-80
2022/02/27 06:04:02;;;;;;;23.67;8.70;;;;;;;0.14;59.29;102006.30;122801;1105;104332;-79
2022/02/27 06:06:33;;;;;;;20.37;8.63;;;;;;;0.22;59.02;102005.43;122979;1105;104210;-79
2022/02/27 06:09:05;;;;;;;21.60;8.40;;;;;;;0.30;59.28;102006.20;122935;1105;104339;-79
2022/02/27 06:11:36;;;;;;;19.47;7.90;;;;;;;0.38;58.92;102009.56;122756;1106;104363;-79
2022/02/27 06:14:08;;;;;;;21.60;8.53;;;;;;;0.48;59.50;102008.06;122588;1105;104348;-79
2022/02/27 06:16:39;;;;;;;21.10;8.57;;;;;;;0.59;59.21;102016.84;122609;1105;104296;-79
2022/02/27 06:19:11;;;;;;;21.93;8.03;;;;;;;0.67;59.26;102015.97;122821;1105;104361;-79
2022/02/27 06:21:42;;;;;;;21.23;9.07;;;;;;;0.74;59.07;102022.64;122968;1103;104338;-79
2022/02/27 06:24:13;;;;;;;26.17;10.17;;;;;;;0.80;59.33;102018.09;122895;1105;104297;-79
2022/02/27 06:26:45;;;;;;;28.93;10.07;;;;;;;0.92;59.42;102025.22;123115;1105;104715;-79
2022/02/27 06:29:16;;;;;;;24.73;8.87;;;;;;;1.03;59.24;102028.12;122986;1105;104383;-79
2022/02/27 06:32:04;;;;;;;21.43;8.70;;;;;;;1.16;59.27;102018.98;123032;1105;104300;-79
2022/02/27 06:34:36;;;;;;;23.03;8.03;;;;;;;1.32;59.34;102017.10;122695;1105;105466;-79
2022/02/27 06:37:08;;;;;;;18.67;7.53;;;;;;;1.47;59.30;102021.96;123125;1105;104261;-79
2022/02/27 06:39:39;;;;;;;21.33;7.43;;;;;;;1.64;59.55;102013.20;123001;1105;104293;-79
2022/02/27 06:42:11;;;;;;;20.03;7.20;;;;;;;1.75;59.29;102018.65;122984;1105;104286;-80
2022/02/27 06:44:42;;;;;;;23.27;8.13;;;;;;;1.90;59.46;102023.45;122893;1105;104296;-80
2022/02/27 06:47:14;;;;;;;20.50;7.70;;;;;;;2.04;59.18;102019.58;122846;1105;104324;-79
2022/02/27 06:49:45;;;;;;;18.80;6.73;;;;;;;2.16;59.14;102013.86;122761;1105;104385;-79
2022/02/27 06:52:16;;;;;;;20.43;7.23;;;;;;;2.27;58.86;102019.15;122672;1104;104364;-79
2022/02/27 06:54:48;;;;;;;21.27;7.17;;;;;;;2.36;58.87;102017.42;122708;1103;104309;-79
2022/02/27 06:57:19;;;;;;;19.73;6.97;;;;;;;2.46;58.63;102020.11;123025;1105;104392;-79
2022/02/27 06:59:51;;;;;;;20.47;7.53;;;;;;;2.59;58.58;102018.64;122849;1103;104214;-78
2022/02/27 07:02:23;;;;;;;19.80;7.10;;;;;;;2.69;58.80;102016.11;122762;1105;104255;-78
2022/02/27 07:04:54;;;;;;;18.30;7.13;;;;;;;2.78;59.06;102011.77;123003;1105;104502;-79
2022/02/27 07:07:26;;;;;;;18.10;7.50;;;;;;;2.92;59.04;102019.90;122695;1105;104307;-79
2022/02/27 07:10:00;;;;;;;18.60;8.33;;;;;;;3.03;58.42;102019.18;122872;1105;104409;-79
2022/02/27 07:12:33;;;;;;;22.57;7.87;;;;;;;3.17;58.21;102021.33;122769;1103;104290;-79
2022/02/27 07:15:07;;;;;;;21.77;8.00;;;;;;;3.27;58.16;102019.55;122804;1104;104743;-80
2022/02/27 07:17:39;;;;;;;25.67;10.70;;;;;;;3.36;58.55;102015.19;122969;1105;104377;-80
2022/02/27 07:20:12;;;;;;;29.20;10.63;;;;;;;3.48;58.20;102016.28;122710;1105;104524;-79
2022/02/27 07:22:42;;;;;;;;;;;;;;;3.62;58.11;102014.90;122841;1105;104305;-79
2022/02/27 07:25:14;;;;;;;32.70;12.30;;;;;;;3.76;58.53;102008.32;122748;1105;104338;-79
2022/02/27 07:27:46;;;;;;;31.80;13.23;;;;;;;3.90;58.46;102013.02;122989;1105;104633;-80
2022/02/27 07:30:17;;;;;;;32.17;11.97;;;;;;;4.07;57.81;102010.98;122982;1104;104303;-80
2022/02/27 07:32:49;;;;;;;31.40;10.80;;;;;;;4.20;57.87;102011.23;122885;1105;104363;-78
2022/02/27 07:35:20;;;;;;;25.87;9.90;;;;;;;4.28;58.31;102015.38;122787;1103;104293;-78
2022/02/27 07:37:51;;;;;;;23.63;8.73;;;;;;;4.37;57.94;102010.08;122746;1105;110932;-79
2022/02/27 07:40:23;;;;;;;26.87;9.37;;;;;;;4.48;58.41;102008.38;122789;1105;104267;-79
2022/02/27 07:42:54;;;;;;;23.00;8.77;;;;;;;4.57;57.98;102011.77;122700;1105;104395;-79
2022/02/27 07:45:26;;;;;;;24.60;8.67;;;;;;;4.67;57.68;102019.56;122764;1104;104382;-79
2022/02/27 07:47:57;;;;;;;20.87;7.83;;;;;;;4.81;58.05;102007.67;122762;1105;104379;-79
2022/02/27 07:50:29;;;;;;;24.47;7.97;;;;;;;4.94;57.62;102003.49;122712;1105;104332;-79
2022/02/27 07:53:00;;;;;;;20.80;7.20;;;;;;;5.02;57.38;101999.85;122782;1105;104348;-78
2022/02/27 07:55:32;;;;;;;19.73;6.63;;;;;;;5.10;56.92;102005.69;122862;1106;104320;-79
2022/02/27 07:58:04;;;;;;;18.93;6.37;;;;;;;5.12;57.31;101994.59;122825;1105;104386;-80
2022/02/27 08:00:35;;;;;;;17.30;6.80;;;;;;;5.20;56.88;102003.96;122829;1103;104376;-79
2022/02/27 08:03:08;;;;;;;15.60;6.67;;;;;;;5.25;56.31;101992.99;122789;1105;104737;-80
2022/02/27 08:05:40;;;;;;;17.20;6.60;;;;;;;5.31;56.38;102001.30;122888;1105;104258;-79
2022/02/27 08:08:12;;;;;;;17.27;6.37;;;;;;;5.31;53.13;102006.50;122863;1105;104355;-80
2022/02/27 08:10:43;;;;;;;19.67;6.97;;;;;;;5.31;55.06;102003.91;122694;1105;104341;-79
2022/02/27 08:13:15;;;;;;;17.97;6.77;;;;;;;5.39;55.60;102008.95;122810;1105;104242;-79
2022/02/27 08:15:46;;;;;;;18.30;6.00;;;;;;;5.48;55.36;102010.47;122693;1105;104766;-80
2022/02/27 08:18:18;;;;;;;17.90;5.93;;;;;;;5.59;55.88;102007.02;122815;1105;104257;-80
2022/02/27 08:20:49;;;;;;;19.57;6.80;;;;;;;5.73;55.68;102006.45;122750;1105;104466;-79
2022/02/27 08:23:20;;;;;;;19.43;6.70;;;;;;;5.67;53.68;102010.24;122774;1105;104370;-80
2022/02/27 08:25:55;;;;;;;17.77;6.67;;;;;;;5.61;53.59;102013.28;122794;1103;104236;-80
2022/02/27 08:28:28;;;;;;;18.47;6.77;;;;;;;5.69;54.75;102008.69;122747;1105;104296;-80
2022/02/27 08:31:01;;;;;;;18.07;6.37;;;;;;;5.79;54.36;102012.92;122884;1105;104395;-79
2022/02/27 08:33:32;;;;;;;18.67;6.63;;;;;;;5.86;53.99;102013.53;122790;1103;104401;-78
2022/02/27 08:36:09;;;;;;;19.07;6.37;;;;;;;5.88;53.70;102008.44;122686;1105;104412;-80
2022/02/27 08:38:41;;;;;;;16.47;6.30;;;;;;;5.87;53.72;102012.72;122701;1105;104293;-79
2022/02/27 08:41:13;;;;;;;19.97;6.20;;;;;;;5.91;52.06;102003.47;122799;1105;104287;-80
2022/02/27 08:43:44;;;;;;;18.17;6.97;;;;;;;5.97;53.83;102003.05;122829;1105;104287;-80
2022/02/27 08:46:15;;;;;;;17.30;6.10;;;;;;;6.02;53.28;102007.85;122686;1105;104287;-79
2022/02/27 08:48:47;;;;;;;19.63;5.93;;;;;;;6.06;53.77;102009.92;122745;1104;104249;-79
2022/02/27 08:51:18;;;;;;;18.65;6.55;;;;;;;6.07;53.05;102006.50;122889;1105;104271;-79
2022/02/27 08:53:49;;;;;;;17.63;6.07;;;;;;;6.16;52.99;102005.42;123048;1105;104399;-78
2022/02/27 08:56:21;;;;;;;17.63;6.13;;;;;;;6.24;53.21;101999.99;122842;1105;104556;-79
2022/02/27 08:58:53;;;;;;;18.40;6.00;;;;;;;6.34;53.46;101995.48;122773;1105;104415;-78
2022/02/27 09:01:25;;;;;;;17.33;6.07;;;;;;;6.37;51.48;101986.19;122797;1105;104393;-79
2022/02/27 09:03:57;;;;;;;18.53;5.90;;;;;;;6.40;53.24;101996.86;122834;1106;104406;-80
2022/02/27 09:06:28;;;;;;;15.80;6.10;;;;;;;6.48;53.21;101995.77;122727;1105;104418;-79
2022/02/27 09:09:00;;;;;;;17.30;6.53;;;;;;;6.51;52.90;102000.28;122830;1105;104337;-80
2022/02/27 09:11:34;;;;;;;19.37;7.53;;;;;;;6.55;52.84;101996.23;122818;1105;104485;-79
2022/02/27 09:14:05;;;;;;;19.13;6.07;;;;;;;6.61;51.97;101986.27;122770;1105;104316;-79
2022/02/27 09:16:36;;;;;;;16.00;5.93;;;;;;;6.70;52.30;101989.56;122857;1105;104287;-79
2022/02/27 09:19:09;;;;;;;18.97;6.67;;;;;;;6.75;52.36;101985.59;122875;1105;104338;-79
2022/02/27 09:21:41;;;;;;;14.07;5.60;;;;;;;6.85;52.08;101987.17;122785;1105;104332;-79
2022/02/27 09:24:13;;;;;;;17.57;6.43;;;;;;;6.97;53.07;101981.97;122806;1105;104325;-79
2022/02/27 09:26:45;;;;;;;17.85;6.20;;;;;;;7.13;52.26;101970.95;122725;1105;104377;-78
2022/02/27 09:29:18;;;;;;;17.33;6.23;;;;;;;7.18;52.38;101967.89;122772;1105;104373;-79
2022/02/27 09:31:54;;;;;;;22.95;8.00;;;;;;;7.27;52.35;101966.73;122990;1105;104306;-80
2022/02/27 09:34:30;;;;;;;22.63;8.23;;;;;;;7.35;52.55;101969.12;122856;1103;104337;-79
2022/02/27 09:37:01;;;;;;;24.30;9.43;;;;;;;7.45;52.54;101965.45;122793;1105;104330;-80
2022/02/27 09:39:32;;;;;;;25.97;8.67;;;;;;;7.50;51.83;101965.78;122773;1105;104268;-80
2022/02/27 09:42:05;;;;;;;27.00;10.57;;;;;;;7.54;52.33;101963.50;123001;1105;104184;-79
2022/02/27 09:44:41;;;;;;;36.97;15.43;;;;;;;7.50;50.99;101961.45;122898;1103;104342;-79
2022/02/27 09:47:15;;;;;;;31.13;13.00;;;;;;;7.58;51.62;101946.33;122932;1105;104396;-78
2022/02/27 09:49:51;;;;;;;30.27;11.70;;;;;;;7.69;51.43;101942.76;122807;1105;104344;-79
2022/02/27 09:52:23;;;;;;;31.10;12.77;;;;;;;7.85;51.50;101943.84;122734;1105;104396;-79
2022/02/27 09:54:55;;;;;;;27.90;10.33;;;;;;;7.89;49.73;101938.93;122766;1104;104345;-80
2022/02/27 09:57:27;;;;;;;38.27;15.33;;;;;;;7.83;47.76;101945.45;122751;1105;104256;-80
2022/02/27 09:59:59;;;;;;;44.10;18.97;;;;;;;7.85;50.06;101946.45;122754;1105;104309;-79
2022/02/27 10:02:32;;;;;;;28.43;12.70;;;;;;;7.89;50.51;101941.55;122740;1105;104331;-79
2022/02/27 10:05:04;;;;;;;29.07;11.70;;;;;;;7.94;49.95;101933.12;122730;1105;104288;-80
2022/02/27 10:07:35;;;;;;;27.00;10.97;;;;;;;7.87;49.49;101935.31;122710;1105;104294;-79
2022/02/27 10:10:08;;;;;;;27.50;11.53;;;;;;;7.96;50.76;101937.64;122743;1105;104280;-80
2022/02/27 10:12:41;;;;;;;25.50;10.30;;;;;;;8.07;50.40;101935.77;122765;1103;104746;-78
2022/02/27 10:15:15;;;;;;;21.52;8.48;;;;;;;8.13;48.22;101923.12;122852;1105;104290;-79
2022/02/27 10:17:51;;;;;;;20.23;6.13;;;;;;;8.14;48.84;101931.89;122759;1105;104283;-80
2022/02/27 10:20:25;;;;;;;15.70;5.40;;;;;;;8.23;48.65;101930.80;122789;1105;104258;-79
2022/02/27 10:22:58;;;;;;;16.50;6.17;;;;;;;8.30;46.75;101918.14;122897;1105;104303;-79
2022/02/27 10:25:31;;;;;;;16.53;6.20;;;;;;;8.34;48.12;101920.17;122782;1105;104369;-78
2022/02/27 10:28:05;;;;;;;22.83;8.80;;;;;;;8.48;48.54;101908.02;122748;1105;104374;-79
2022/02/27 10:30:38;;;;;;;19.50;7.30;;;;;;;8.54;48.73;101897.97;122860;1105;104274;-79
2022/02/27 10:33:12;;;;;;;22.00;7.73;;;;;;;8.72;48.23;101896.56;122767;1105;104242;-80
2022/02/27 10:35:47;;;;;;;29.23;11.90;;;;;;;8.84;48.64;101899.09;122902;1103;104399;-79
2022/02/27 10:38:31;;;;;;;18.40;6.60;;;;;;;8.79;46.27;101893.55;122898;1105;104422;-78
2022/02/27 10:41:08;;;;;;;;;;;;;;;8.66;44.02;101888.31;122942;1106;104399;-80
2022/02/27 10:43:43;;;;;;;9.45;3.60;;;;;;;8.55;45.79;101886.70;122812;1105;104421;-79
2022/02/27 10:46:19;;;;;;;14.03;4.70;;;;;;;8.48;46.12;101881.86;122865;1105;104365;-79
2022/02/27 10:48:52;;;;;;;13.83;4.73;;;;;;;8.49;45.76;101879.34;122922;1104;104351;-79
2022/02/27 10:51:25;;;;;;;17.77;5.50;;;;;;;8.42;45.95;101877.11;122884;1103;104229;-79
2022/02/27 10:53:57;;;;;;;13.05;4.28;;;;;;;8.30;45.02;101879.80;122805;1104;104294;-79
2022/02/27 10:56:34;;;;;;;13.03;4.80;;;;;;;8.25;46.11;101879.50;122821;1105;104332;-79
2022/02/27 10:59:15;;;;;;;18.67;5.97;;;;;;;8.21;46.24;101879.19;122680;1105;104294;-79
2022/02/27 11:01:46;;;;;;;13.50;5.77;;;;;;;8.13;46.25;101873.44;122802;1105;112395;-80
2022/02/27 11:04:18;;;;;;;18.47;6.00;;;;;;;8.23;45.83;101870.66;122805;1105;104268;-78
2022/02/27 11:06:50;;;;;;;14.83;4.73;;;;;;;8.38;45.90;101869.86;122757;1103;104392;-80
2022/02/27 11:09:22;;;;;;;14.37;5.70;;;;;;;8.48;45.20;101858.31;122770;1105;104361;-78
2022/02/27 11:11:54;;;;;;;19.73;6.87;;;;;;;8.62;45.31;101850.58;122788;1105;104749;-79
2022/02/27 11:14:25;;;;;;;21.13;7.47;;;;;;;8.64;45.75;101845.45;122770;1105;104351;-80
2022/02/27 11:17:00;;;;;;;28.70;10.87;;;;;;;8.52;45.04;101839.41;122886;1104;104271;-79
2022/02/27 11:19:33;;;;;;;19.40;7.43;;;;;;;8.38;43.35;101835.85;122779;1105;104486;-79
2022/02/27 11:22:06;;;;;;;15.27;5.27;;;;;;;8.32;44.90;101828.53;122635;1105;104776;-80
2022/02/27 11:24:38;;;;;;;;;;;;;;;8.19;41.02;101841.58;122885;1105;104967;-80
2022/02/27 11:27:13;;;;;;;9.90;3.30;;;;;;;8.07;41.73;101842.58;122776;1105;104293;-79
2022/02/27 11:29:47;;;;;;;6.17;2.70;;;;;;;7.94;43.03;101845.16;122684;1105;104718;-80